sensor_id;sensor_type;location;lat;lon;timestamp;pressure;altitude;pressure_sealevel;temperature;humidity
13456;BME280;6800;50.940;6.940;2023-03-14T00:01:00;98416.31;;;22.10;37.03
13456;BME280;6800;50.940;6.940;2023-03-14T00:05:09;98418.91;;;21.92;37.28
13456;BME280;6800;50.940;6.940;2023-03-14T00:09:10;98407.41;;;21.98;37.18
13456;BME280;6800;50.940;6.940;2023-03-14T00:13:11;98434.31;;;22.08;36.95
13456;BME280;6800;50.940;6.940;2023-03-14T00:17:13;98468.91;;;21.57;37.97
13456;BME280;6800;50.940;6.940;2023-03-14T00:21:15;98482.41;;;21.55;37.76
13456;BME280;6800;50.940;6.940;2023-03-14T00:25:17;98477.09;;;21.55;37.69
13456;BME280;6800;50.940;6.940;2023-03-14T00:29:18;98472.47;;;21.89;37.25
13456;BME280;6800;50.940;6.940;2023-03-14T00:33:19;98476.84;;;22.08;36.87
13456;BME280;6800;50.940;6.940;2023-03-14T00:37:21;98466.47;;;21.55;37.69
13456;BME280;6800;50.940;6.940;2023-03-14T00:41:23;98464.72;;;21.81;36.83
13456;BME280;6800;50.940;6.940;2023-03-14T00:45:24;98464.06;;;21.47;37.73
13456;BME280;6800;50.940;6.940;2023-03-14T00:49:26;98459.59;;;22.17;36.42
13456;BME280;6800;50.940;6.940;2023-03-14T00:53:27;98458.00;;;22.16;36.16
13456;BME280;6800;50.940;6.940;2023-03-14T00:57:29;98461.03;;;21.82;36.89
13456;BME280;6800;50.940;6.940;2023-03-14T01:01:30;98451.69;;;21.72;37.32
13456;BME280;6800;50.940;6.940;2023-03-14T01:05:32;98457.69;;;21.99;36.97
13456;BME280;6800;50.940;6.940;2023-03-14T01:09:33;98453.47;;;21.85;37.49
13456;BME280;6800;50.940;6.940;2023-03-14T01:13:35;98464.94;;;21.79;38.16
13456;BME280;6800;50.940;6.940;2023-03-14T01:17:37;98495.09;;;21.53;38.94
13456;BME280;6800;50.940;6.940;2023-03-14T01:21:41;98540.63;;;22.08;40.53
13456;BME280;6800;50.940;6.940;2023-03-14T01:25:42;98503.25;;;21.58;42.08
13456;BME280;6800;50.940;6.940;2023-03-14T01:29:44;98486.31;;;20.50;44.24
13456;BME280;6800;50.940;6.940;2023-03-14T01:33:46;98493.97;;;21.23;43.15
13456;BME280;6800;50.940;6.940;2023-03-14T01:37:47;98470.88;;;21.30;43.71
13456;BME280;6800;50.940;6.940;2023-03-14T01:41:48;98472.81;;;20.90;44.64
13456;BME280;6800;50.940;6.940;2023-03-14T01:50:09;98467.94;;;20.68;43.70
13456;BME280;6800;50.940;6.940;2023-03-14T01:54:24;98465.06;;;20.04;45.36
13456;BME280;6800;50.940;6.940;2023-03-14T01:58:27;98456.91;;;20.18;45.14
13456;BME280;6800;50.940;6.940;2023-03-14T02:02:31;98439.81;;;20.34;44.58
13456;BME280;6800;50.940;6.940;2023-03-14T02:06:49;98452.47;;;20.52;44.26
13456;BME280;6800;50.940;6.940;2023-03-14T02:10:51;98448.78;;;20.27;44.27
13456;BME280;6800;50.940;6.940;2023-03-14T02:14:52;98457.09;;;20.10;44.37
13456;BME280;6800;50.940;6.940;2023-03-14T02:18:53;98442.25;;;20.16;44.45
13456;BME280;6800;50.940;6.940;2023-03-14T02:22:55;98442.28;;;20.23;44.11
13456;BME280;6800;50.940;6.940;2023-03-14T02:27:19;98448.34;;;20.10;44.15
13456;BME280;6800;50.940;6.940;2023-03-14T02:31:22;98446.16;;;20.33;43.46
13456;BME280;6800;50.940;6.940;2023-03-14T02:35:36;98442.47;;;20.28;43.95
13456;BME280;6800;50.940;6.940;2023-03-14T02:39:42;98433.66;;;19.94;44.63
13456;BME280;6800;50.940;6.940;2023-03-14T02:43:45;98415.06;;;19.68;44.39
13456;BME280;6800;50.940;6.940;2023-03-14T02:47:52;98415.97;;;20.41;42.82
13456;BME280;6800;50.940;6.940;2023-03-14T02:51:55;98420.66;;;20.06;44.02
13456;BME280;6800;50.940;6.940;2023-03-14T02:55:57;98413.75;;;20.25;44.08
13456;BME280;6800;50.940;6.940;2023-03-14T02:59:59;98404.09;;;20.10;44.52
13456;BME280;6800;50.940;6.940;2023-03-14T03:04:01;98403.94;;;20.18;43.75
13456;BME280;6800;50.940;6.940;2023-03-14T03:08:03;98402.69;;;19.88;44.34
13456;BME280;6800;50.940;6.940;2023-03-14T03:12:05;98389.66;;;20.06;43.36
13456;BME280;6800;50.940;6.940;2023-03-14T03:16:06;98389.47;;;20.14;43.70
13456;BME280;6800;50.940;6.940;2023-03-14T03:20:09;98395.38;;;20.16;43.83
13456;BME280;6800;50.940;6.940;2023-03-14T03:24:10;98388.06;;;20.32;43.18
13456;BME280;6800;50.940;6.940;2023-03-14T03:28:11;98372.31;;;20.10;43.53
13456;BME280;6800;50.940;6.940;2023-03-14T03:32:13;98378.06;;;20.27;42.68
13456;BME280;6800;50.940;6.940;2023-03-14T03:36:14;98372.53;;;20.02;43.50
13456;BME280;6800;50.940;6.940;2023-03-14T03:40:16;98373.34;;;20.09;42.92
13456;BME280;6800;50.940;6.940;2023-03-14T03:44:17;98373.38;;;20.42;42.02
13456;BME280;6800;50.940;6.940;2023-03-14T03:48:18;98371.25;;;20.64;41.54
13456;BME280;6800;50.940;6.940;2023-03-14T03:52:20;98374.38;;;20.35;41.87
13456;BME280;6800;50.940;6.940;2023-03-14T03:56:21;98368.63;;;20.51;41.81
13456;BME280;6800;50.940;6.940;2023-03-14T04:00:23;98376.28;;;20.85;41.10
13456;BME280;6800;50.940;6.940;2023-03-14T04:04:24;98369.00;;;20.74;41.48
13456;BME280;6800;50.940;6.940;2023-03-14T04:08:26;98367.63;;;20.45;41.76
13456;BME280;6800;50.940;6.940;2023-03-14T04:12:27;98372.88;;;20.71;41.88
13456;BME280;6800;50.940;6.940;2023-03-14T04:16:29;98361.97;;;20.29;42.76
13456;BME280;6800;50.940;6.940;2023-03-14T04:20:34;98363.38;;;20.44;43.04
13456;BME280;6800;50.940;6.940;2023-03-14T04:24:36;98356.19;;;20.51;42.97
13456;BME280;6800;50.940;6.940;2023-03-14T04:28:37;98358.03;;;20.57;42.81
13456;BME280;6800;50.940;6.940;2023-03-14T04:32:40;98362.53;;;20.17;43.73
13456;BME280;6800;50.940;6.940;2023-03-14T04:36:41;98356.81;;;20.53;43.34
13456;BME280;6800;50.940;6.940;2023-03-14T04:40:43;98364.19;;;19.99;44.36
13456;BME280;6800;50.940;6.940;2023-03-14T04:44:45;98350.53;;;20.28;44.03
13456;BME280;6800;50.940;6.940;2023-03-14T04:48:47;98351.78;;;20.12;44.48
13456;BME280;6800;50.940;6.940;2023-03-14T04:52:49;98340.94;;;19.75;44.95
13456;BME280;6800;50.940;6.940;2023-03-14T04:56:50;98326.31;;;20.25;44.73
13456;BME280;6800;50.940;6.940;2023-03-14T05:00:52;98315.88;;;20.30;43.91
13456;BME280;6800;50.940;6.940;2023-03-14T05:04:53;98310.00;;;19.75;45.49
13456;BME280;6800;50.940;6.940;2023-03-14T05:08:54;98309.56;;;20.31;44.74
13456;BME280;6800;50.940;6.940;2023-03-14T05:12:56;98302.28;;;19.74;46.22
13456;BME280;6800;50.940;6.940;2023-03-14T05:16:57;98290.25;;;19.71;45.27
13456;BME280;6800;50.940;6.940;2023-03-14T05:20:59;98300.66;;;19.53;45.90
13456;BME280;6800;50.940;6.940;2023-03-14T05:25:00;98291.03;;;19.98;44.57
13456;BME280;6800;50.940;6.940;2023-03-14T05:29:01;98284.50;;;20.27;43.69
13456;BME280;6800;50.940;6.940;2023-03-14T05:33:03;98283.31;;;20.03;43.96
13456;BME280;6800;50.940;6.940;2023-03-14T05:37:04;98281.69;;;19.89;44.06
13456;BME280;6800;50.940;6.940;2023-03-14T05:41:06;98285.34;;;20.27;42.74
13456;BME280;6800;50.940;6.940;2023-03-14T05:45:07;98290.03;;;20.25;43.07
13456;BME280;6800;50.940;6.940;2023-03-14T05:49:09;98287.78;;;20.22;43.00
13456;BME280;6800;50.940;6.940;2023-03-14T05:53:10;98288.41;;;19.45;43.94
13456;BME280;6800;50.940;6.940;2023-03-14T05:57:12;98281.69;;;19.63;43.34
13456;BME280;6800;50.940;6.940;2023-03-14T06:01:14;98284.97;;;19.91;43.52
13456;BME280;6800;50.940;6.940;2023-03-14T06:05:16;98283.50;;;20.08;43.44
13456;BME280;6800;50.940;6.940;2023-03-14T06:09:18;98277.00;;;19.97;43.68
13456;BME280;6800;50.940;6.940;2023-03-14T06:13:21;98268.63;;;20.07;43.68
13456;BME280;6800;50.940;6.940;2023-03-14T06:17:22;98271.56;;;20.63;42.50
13456;BME280;6800;50.940;6.940;2023-03-14T06:21:23;98271.78;;;20.55;42.81
13456;BME280;6800;50.940;6.940;2023-03-14T06:25:25;98274.03;;;20.45;42.63
13456;BME280;6800;50.940;6.940;2023-03-14T06:29:26;98266.41;;;20.68;41.87
13456;BME280;6800;50.940;6.940;2023-03-14T06:33:27;98268.59;;;20.40;42.68
13456;BME280;6800;50.940;6.940;2023-03-14T06:37:29;98269.63;;;20.76;42.21
13456;BME280;6800;50.940;6.940;2023-03-14T06:41:31;98274.00;;;21.09;41.41
13456;BME280;6800;50.940;6.940;2023-03-14T06:45:33;98266.91;;;20.89;41.77
13456;BME280;6800;50.940;6.940;2023-03-14T06:49:35;98266.59;;;21.17;41.06
13456;BME280;6800;50.940;6.940;2023-03-14T06:53:37;98271.91;;;21.73;40.70
13456;BME280;6800;50.940;6.940;2023-03-14T06:57:38;98265.97;;;21.46;41.35
13456;BME280;6800;50.940;6.940;2023-03-14T07:01:39;98270.91;;;21.12;40.56
13456;BME280;6800;50.940;6.940;2023-03-14T07:05:41;98264.72;;;21.24;40.48
13456;BME280;6800;50.940;6.940;2023-03-14T07:09:42;98270.91;;;21.43;40.70
13456;BME280;6800;50.940;6.940;2023-03-14T07:13:44;98272.41;;;21.88;39.85
13456;BME280;6800;50.940;6.940;2023-03-14T07:17:46;98272.78;;;21.67;40.43
13456;BME280;6800;50.940;6.940;2023-03-14T07:21:49;98287.72;;;22.11;39.37
13456;BME280;6800;50.940;6.940;2023-03-14T07:25:51;98286.72;;;22.30;39.42
13456;BME280;6800;50.940;6.940;2023-03-14T07:29:54;98298.22;;;22.24;39.17
13456;BME280;6800;50.940;6.940;2023-03-14T07:33:55;98296.16;;;22.26;39.17
13456;BME280;6800;50.940;6.940;2023-03-14T07:37:56;98300.31;;;22.76;39.44
13456;BME280;6800;50.940;6.940;2023-03-14T07:41:58;98300.03;;;22.66;38.44
13456;BME280;6800;50.940;6.940;2023-03-14T07:46:00;98310.00;;;22.71;38.74
13456;BME280;6800;50.940;6.940;2023-03-14T07:50:04;98312.38;;;22.79;38.08
13456;BME280;6800;50.940;6.940;2023-03-14T07:54:05;98309.81;;;23.32;38.15
13456;BME280;6800;50.940;6.940;2023-03-14T07:58:07;98313.50;;;22.71;39.08
13456;BME280;6800;50.940;6.940;2023-03-14T08:02:10;98327.16;;;22.75;38.90
13456;BME280;6800;50.940;6.940;2023-03-14T08:06:13;98321.00;;;22.92;38.23
13456;BME280;6800;50.940;6.940;2023-03-14T08:10:14;98330.91;;;22.85;38.63
13456;BME280;6800;50.940;6.940;2023-03-14T08:14:25;98329.38;;;22.60;39.14
13456;BME280;6800;50.940;6.940;2023-03-14T08:18:26;98339.81;;;22.54;39.41
13456;BME280;6800;50.940;6.940;2023-03-14T08:22:28;98333.56;;;22.67;39.61
13456;BME280;6800;50.940;6.940;2023-03-14T08:26:29;98330.53;;;23.00;39.51
13456;BME280;6800;50.940;6.940;2023-03-14T08:30:30;98338.13;;;23.33;39.24
13456;BME280;6800;50.940;6.940;2023-03-14T08:34:33;98339.59;;;23.10;38.67
13456;BME280;6800;50.940;6.940;2023-03-14T08:38:34;98333.69;;;23.08;39.28
13456;BME280;6800;50.940;6.940;2023-03-14T08:42:39;98338.47;;;22.70;40.37
13456;BME280;6800;50.940;6.940;2023-03-14T08:46:41;98343.63;;;22.83;40.33
13456;BME280;6800;50.940;6.940;2023-03-14T08:50:42;98346.72;;;22.98;39.84
13456;BME280;6800;50.940;6.940;2023-03-14T08:54:45;98350.00;;;22.64;40.67
13456;BME280;6800;50.940;6.940;2023-03-14T08:58:47;98352.66;;;23.12;40.13
13456;BME280;6800;50.940;6.940;2023-03-14T09:02:49;98369.28;;;22.53;41.12
13456;BME280;6800;50.940;6.940;2023-03-14T09:06:51;98387.06;;;21.78;43.46
13456;BME280;6800;50.940;6.940;2023-03-14T09:10:52;98392.94;;;22.18;43.38
13456;BME280;6800;50.940;6.940;2023-03-14T09:14:54;98402.00;;;22.11;43.60
13456;BME280;6800;50.940;6.940;2023-03-14T09:18:55;98406.69;;;20.89;46.08
13456;BME280;6800;50.940;6.940;2023-03-14T09:23:00;98407.78;;;21.32;44.89
13456;BME280;6800;50.940;6.940;2023-03-14T09:27:02;98418.91;;;21.54;44.36
13456;BME280;6800;50.940;6.940;2023-03-14T09:31:07;98422.78;;;21.89;43.36
13456;BME280;6800;50.940;6.940;2023-03-14T09:35:09;98427.44;;;21.62;44.46
13456;BME280;6800;50.940;6.940;2023-03-14T09:39:11;98470.41;;;21.46;44.97
13456;BME280;6800;50.940;6.940;2023-03-14T09:43:14;98527.28;;;20.41;45.25
13456;BME280;6800;50.940;6.940;2023-03-14T09:47:16;98544.50;;;20.10;45.33
13456;BME280;6800;50.940;6.940;2023-03-14T09:51:20;98557.25;;;19.74;45.13
13456;BME280;6800;50.940;6.940;2023-03-14T09:55:25;98583.03;;;18.97;46.48
13456;BME280;6800;50.940;6.940;2023-03-14T09:59:28;98594.31;;;18.42;47.19
13456;BME280;6800;50.940;6.940;2023-03-14T10:03:34;98619.22;;;18.97;46.83
13456;BME280;6800;50.940;6.940;2023-03-14T10:07:36;98630.63;;;19.46;45.45
13456;BME280;6800;50.940;6.940;2023-03-14T10:11:39;98655.06;;;18.78;47.51
13456;BME280;6800;50.940;6.940;2023-03-14T10:15:40;98667.66;;;18.55;47.54
13456;BME280;6800;50.940;6.940;2023-03-14T10:23:52;98692.63;;;18.52;47.31
13456;BME280;6800;50.940;6.940;2023-03-14T10:27:54;98713.31;;;18.34;47.13
13456;BME280;6800;50.940;6.940;2023-03-14T10:32:00;98728.97;;;17.92;47.13
13456;BME280;6800;50.940;6.940;2023-03-14T10:36:06;98749.94;;;18.08;47.34
13456;BME280;6800;50.940;6.940;2023-03-14T10:40:19;98768.69;;;18.13;46.96
13456;BME280;6800;50.940;6.940;2023-03-14T10:44:24;98781.19;;;17.67;48.45
13456;BME280;6800;50.940;6.940;2023-03-14T10:48:32;98790.75;;;18.64;46.74
13456;BME280;6800;50.940;6.940;2023-03-14T10:52:34;98800.69;;;18.98;45.52
13456;BME280;6800;50.940;6.940;2023-03-14T10:57:00;98809.06;;;17.70;48.00
13456;BME280;6800;50.940;6.940;2023-03-14T11:05:22;98839.28;;;18.19;47.13
13456;BME280;6800;50.940;6.940;2023-03-14T11:09:32;98839.63;;;18.16;47.39
13456;BME280;6800;50.940;6.940;2023-03-14T11:13:43;98849.31;;;18.38;46.97
13456;BME280;6800;50.940;6.940;2023-03-14T11:18:13;98843.78;;;18.62;46.36
13456;BME280;6800;50.940;6.940;2023-03-14T11:22:23;98853.13;;;20.14;43.52
13456;BME280;6800;50.940;6.940;2023-03-14T11:26:27;98876.09;;;19.86;44.25
13456;BME280;6800;50.940;6.940;2023-03-14T11:30:39;98876.44;;;20.26;42.98
13456;BME280;6800;50.940;6.940;2023-03-14T11:34:51;98891.50;;;19.76;42.56
13456;BME280;6800;50.940;6.940;2023-03-14T11:38:56;98889.66;;;19.77;42.84
13456;BME280;6800;50.940;6.940;2023-03-14T11:43:20;98957.19;;;18.12;45.06
13456;BME280;6800;50.940;6.940;2023-03-14T11:47:29;98968.28;;;17.24;45.87
13456;BME280;6800;50.940;6.940;2023-03-14T11:51:38;98971.25;;;17.21;46.41
13456;BME280;6800;50.940;6.940;2023-03-14T11:55:42;98989.16;;;17.72;45.83
13456;BME280;6800;50.940;6.940;2023-03-14T11:59:54;98991.47;;;17.36;46.42
13456;BME280;6800;50.940;6.940;2023-03-14T12:04:09;99007.28;;;17.36;47.02
13456;BME280;6800;50.940;6.940;2023-03-14T12:08:29;99011.25;;;17.79;45.92
13456;BME280;6800;50.940;6.940;2023-03-14T12:12:34;99036.13;;;17.38;47.23
13456;BME280;6800;50.940;6.940;2023-03-14T12:16:38;99047.91;;;17.66;46.67
13456;BME280;6800;50.940;6.940;2023-03-14T12:20:51;99060.00;;;18.14;45.60
13456;BME280;6800;50.940;6.940;2023-03-14T12:29:17;99097.38;;;17.72;46.07
13456;BME280;6800;50.940;6.940;2023-03-14T12:37:31;99143.81;;;17.18;43.68
13456;BME280;6800;50.940;6.940;2023-03-14T12:41:43;99154.50;;;17.57;43.92
13456;BME280;6800;50.940;6.940;2023-03-14T12:46:18;99159.44;;;18.07;43.25
13456;BME280;6800;50.940;6.940;2023-03-14T12:50:26;99177.41;;;17.40;43.63
13456;BME280;6800;50.940;6.940;2023-03-14T12:55:02;99187.63;;;17.59;42.17
13456;BME280;6800;50.940;6.940;2023-03-14T12:59:26;99205.28;;;17.27;42.84
13456;BME280;6800;50.940;6.940;2023-03-14T13:03:43;99215.50;;;17.62;41.78
13456;BME280;6800;50.940;6.940;2023-03-14T13:11:47;99239.22;;;17.78;41.73
13456;BME280;6800;50.940;6.940;2023-03-14T13:15:54;99246.78;;;16.84;44.25
13456;BME280;6800;50.940;6.940;2023-03-14T13:20:03;99263.59;;;17.88;42.56
13456;BME280;6800;50.940;6.940;2023-03-14T13:24:27;99272.72;;;17.85;41.94
13456;BME280;6800;50.940;6.940;2023-03-14T13:28:30;99290.28;;;18.09;41.85
13456;BME280;6800;50.940;6.940;2023-03-14T13:32:32;99286.53;;;18.58;41.48
13456;BME280;6800;50.940;6.940;2023-03-14T13:36:35;99289.69;;;18.85;40.48
13456;BME280;6800;50.940;6.940;2023-03-14T13:40:37;99297.94;;;17.48;41.46
13456;BME280;6800;50.940;6.940;2023-03-14T13:44:39;99326.19;;;17.63;41.47
13456;BME280;6800;50.940;6.940;2023-03-14T13:48:54;99346.38;;;17.23;41.16
13456;BME280;6800;50.940;6.940;2023-03-14T13:52:56;99359.75;;;17.29;41.33
13456;BME280;6800;50.940;6.940;2023-03-14T13:57:04;99361.34;;;17.06;41.24
13456;BME280;6800;50.940;6.940;2023-03-14T14:01:20;99369.28;;;17.14;40.54
13456;BME280;6800;50.940;6.940;2023-03-14T14:05:28;99383.00;;;17.34;40.25
13456;BME280;6800;50.940;6.940;2023-03-14T14:09:36;99397.94;;;17.91;39.68
13456;BME280;6800;50.940;6.940;2023-03-14T14:13:38;99400.06;;;18.28;38.20
13456;BME280;6800;50.940;6.940;2023-03-14T14:17:43;99420.22;;;18.13;39.27
13456;BME280;6800;50.940;6.940;2023-03-14T14:21:45;99424.31;;;18.39;38.62
13456;BME280;6800;50.940;6.940;2023-03-14T14:25:49;99431.75;;;18.28;38.50
13456;BME280;6800;50.940;6.940;2023-03-14T14:30:00;99446.13;;;17.77;38.89
13456;BME280;6800;50.940;6.940;2023-03-14T14:34:03;99461.31;;;17.75;39.00
13456;BME280;6800;50.940;6.940;2023-03-14T14:38:12;99470.38;;;17.88;38.74
13456;BME280;6800;50.940;6.940;2023-03-14T14:42:19;99481.94;;;17.87;39.31
13456;BME280;6800;50.940;6.940;2023-03-14T14:46:27;99492.16;;;17.74;38.54
13456;BME280;6800;50.940;6.940;2023-03-14T14:50:34;99500.28;;;18.37;38.29
13456;BME280;6800;50.940;6.940;2023-03-14T14:54:43;99516.44;;;18.02;38.53
13456;BME280;6800;50.940;6.940;2023-03-14T14:58:46;99516.94;;;17.89;38.29
13456;BME280;6800;50.940;6.940;2023-03-14T15:02:50;99540.78;;;18.46;38.09
13456;BME280;6800;50.940;6.940;2023-03-14T15:06:55;99551.13;;;18.31;38.76
13456;BME280;6800;50.940;6.940;2023-03-14T15:10:58;99553.13;;;18.37;38.23
13456;BME280;6800;50.940;6.940;2023-03-14T15:14:59;99560.53;;;18.10;37.83
13456;BME280;6800;50.940;6.940;2023-03-14T15:19:03;99567.00;;;18.39;37.36
13456;BME280;6800;50.940;6.940;2023-03-14T15:23:25;99580.69;;;18.27;37.00
13456;BME280;6800;50.940;6.940;2023-03-14T15:27:28;99591.81;;;18.54;36.74
13456;BME280;6800;50.940;6.940;2023-03-14T15:31:31;99595.75;;;18.34;36.30
13456;BME280;6800;50.940;6.940;2023-03-14T15:35:32;99602.84;;;18.42;36.16
13456;BME280;6800;50.940;6.940;2023-03-14T15:39:34;99617.97;;;18.08;37.28
13456;BME280;6800;50.940;6.940;2023-03-14T15:43:36;99629.25;;;17.84;36.98
13456;BME280;6800;50.940;6.940;2023-03-14T15:47:37;99627.75;;;18.31;36.17
13456;BME280;6800;50.940;6.940;2023-03-14T15:51:38;99643.53;;;18.49;35.44
13456;BME280;6800;50.940;6.940;2023-03-14T15:55:40;99650.50;;;18.16;36.38
13456;BME280;6800;50.940;6.940;2023-03-14T15:59:41;99664.50;;;18.50;35.52
13456;BME280;6800;50.940;6.940;2023-03-14T16:03:43;99679.09;;;18.21;36.58
13456;BME280;6800;50.940;6.940;2023-03-14T16:07:46;99689.13;;;18.51;36.46
13456;BME280;6800;50.940;6.940;2023-03-14T16:11:47;99695.69;;;18.05;37.50
13456;BME280;6800;50.940;6.940;2023-03-14T16:15:59;99705.31;;;18.14;37.69
13456;BME280;6800;50.940;6.940;2023-03-14T16:20:01;99708.31;;;18.19;37.59
13456;BME280;6800;50.940;6.940;2023-03-14T16:24:04;99715.91;;;18.22;37.65
13456;BME280;6800;50.940;6.940;2023-03-14T16:28:07;99726.06;;;18.01;37.73
13456;BME280;6800;50.940;6.940;2023-03-14T16:32:11;99724.44;;;18.08;38.14
13456;BME280;6800;50.940;6.940;2023-03-14T16:36:14;99745.63;;;17.90;36.33
13456;BME280;6800;50.940;6.940;2023-03-14T16:40:15;99754.41;;;17.91;35.31
13456;BME280;6800;50.940;6.940;2023-03-14T16:44:17;99760.78;;;17.80;34.61
13456;BME280;6800;50.940;6.940;2023-03-14T16:48:19;99771.31;;;17.80;33.25
13456;BME280;6800;50.940;6.940;2023-03-14T16:52:20;99787.34;;;17.44;31.52
13456;BME280;6800;50.940;6.940;2023-03-14T16:56:22;99798.00;;;17.34;30.86
13456;BME280;6800;50.940;6.940;2023-03-14T17:00:23;99812.88;;;16.90;29.71
13456;BME280;6800;50.940;6.940;2023-03-14T17:04:25;99816.06;;;17.11;28.69
13456;BME280;6800;50.940;6.940;2023-03-14T17:08:26;99828.78;;;16.81;29.21
13456;BME280;6800;50.940;6.940;2023-03-14T17:12:28;99830.06;;;16.94;28.62
13456;BME280;6800;50.940;6.940;2023-03-14T17:16:29;99849.22;;;16.96;28.62
13456;BME280;6800;50.940;6.940;2023-03-14T17:20:31;99860.47;;;17.34;30.97
13456;BME280;6800;50.940;6.940;2023-03-14T17:24:33;99862.44;;;16.87;28.99
13456;BME280;6800;50.940;6.940;2023-03-14T17:28:34;99878.22;;;16.69;28.87
13456;BME280;6800;50.940;6.940;2023-03-14T17:32:36;99899.34;;;17.14;28.00
13456;BME280;6800;50.940;6.940;2023-03-14T17:36:37;99897.38;;;16.98;28.20
13456;BME280;6800;50.940;6.940;2023-03-14T17:40:38;99907.22;;;16.96;28.74
13456;BME280;6800;50.940;6.940;2023-03-14T17:44:40;99924.44;;;16.91;28.50
13456;BME280;6800;50.940;6.940;2023-03-14T17:48:46;99936.84;;;16.81;28.96
13456;BME280;6800;50.940;6.940;2023-03-14T17:52:48;99949.44;;;16.87;28.69
13456;BME280;6800;50.940;6.940;2023-03-14T17:56:49;99963.06;;;17.09;28.32
13456;BME280;6800;50.940;6.940;2023-03-14T18:00:51;99976.66;;;16.78;28.56
13456;BME280;6800;50.940;6.940;2023-03-14T18:04:52;99985.13;;;16.81;29.13
13456;BME280;6800;50.940;6.940;2023-03-14T18:08:53;99998.69;;;16.86;29.32
13456;BME280;6800;50.940;6.940;2023-03-14T18:12:56;100000.13;;;16.71;29.64
13456;BME280;6800;50.940;6.940;2023-03-14T18:16:57;100015.16;;;16.04;31.22
13456;BME280;6800;50.940;6.940;2023-03-14T18:20:59;100025.97;;;16.20;30.30
13456;BME280;6800;50.940;6.940;2023-03-14T18:25:00;100029.03;;;16.15;30.75
13456;BME280;6800;50.940;6.940;2023-03-14T18:29:02;100032.31;;;15.89;31.20
13456;BME280;6800;50.940;6.940;2023-03-14T18:33:03;100052.81;;;15.95;30.88
13456;BME280;6800;50.940;6.940;2023-03-14T18:37:05;100075.56;;;16.15;31.13
13456;BME280;6800;50.940;6.940;2023-03-14T18:41:12;100084.84;;;15.90;31.05
13456;BME280;6800;50.940;6.940;2023-03-14T18:45:14;100100.94;;;15.97;31.13
13456;BME280;6800;50.940;6.940;2023-03-14T18:49:15;100104.75;;;15.83;30.82
13456;BME280;6800;50.940;6.940;2023-03-14T18:53:17;100133.34;;;15.57;30.60
13456;BME280;6800;50.940;6.940;2023-03-14T18:57:18;100122.63;;;15.80;30.75
13456;BME280;6800;50.940;6.940;2023-03-14T19:01:20;100132.00;;;15.73;30.63
13456;BME280;6800;50.940;6.940;2023-03-14T19:05:22;100146.38;;;15.38;31.04
13456;BME280;6800;50.940;6.940;2023-03-14T19:09:24;100151.84;;;15.46;30.59
13456;BME280;6800;50.940;6.940;2023-03-14T19:13:25;100148.66;;;15.83;30.34
13456;BME280;6800;50.940;6.940;2023-03-14T19:17:27;100160.88;;;15.53;30.41
13456;BME280;6800;50.940;6.940;2023-03-14T19:21:31;100163.44;;;15.23;30.36
13456;BME280;6800;50.940;6.940;2023-03-14T19:25:33;100163.66;;;15.52;30.13
13456;BME280;6800;50.940;6.940;2023-03-14T19:29:34;100167.63;;;15.05;30.92
13456;BME280;6800;50.940;6.940;2023-03-14T19:33:42;100182.38;;;15.58;29.97
13456;BME280;6800;50.940;6.940;2023-03-14T19:37:43;100189.53;;;14.95;31.00
13456;BME280;6800;50.940;6.940;2023-03-14T19:41:45;100200.75;;;15.38;30.18
13456;BME280;6800;50.940;6.940;2023-03-14T19:45:46;100207.00;;;15.37;30.50
13456;BME280;6800;50.940;6.940;2023-03-14T19:49:48;100207.00;;;15.57;29.71
13456;BME280;6800;50.940;6.940;2023-03-14T19:53:51;100224.34;;;14.76;30.66
13456;BME280;6800;50.940;6.940;2023-03-14T19:57:53;100239.16;;;15.09;30.21
13456;BME280;6800;50.940;6.940;2023-03-14T20:01:54;100239.34;;;15.17;30.50
13456;BME280;6800;50.940;6.940;2023-03-14T20:06:02;100243.09;;;15.46;29.89
13456;BME280;6800;50.940;6.940;2023-03-14T20:10:05;100250.81;;;14.95;30.42
13456;BME280;6800;50.940;6.940;2023-03-14T20:14:08;100260.22;;;15.29;29.97
13456;BME280;6800;50.940;6.940;2023-03-14T20:18:09;100269.03;;;15.39;30.29
13456;BME280;6800;50.940;6.940;2023-03-14T20:22:11;100277.84;;;15.49;29.71
13456;BME280;6800;50.940;6.940;2023-03-14T20:26:12;100291.44;;;15.23;30.72
13456;BME280;6800;50.940;6.940;2023-03-14T20:30:15;100285.81;;;15.27;30.59
13456;BME280;6800;50.940;6.940;2023-03-14T20:34:19;100298.50;;;14.91;31.21
13456;BME280;6800;50.940;6.940;2023-03-14T20:38:22;100305.78;;;15.19;31.13
13456;BME280;6800;50.940;6.940;2023-03-14T20:42:24;100307.09;;;15.24;30.90
13456;BME280;6800;50.940;6.940;2023-03-14T20:46:27;100307.63;;;15.39;30.53
13456;BME280;6800;50.940;6.940;2023-03-14T20:50:28;100316.81;;;15.13;30.71
13456;BME280;6800;50.940;6.940;2023-03-14T20:54:30;100320.44;;;15.01;31.68
13456;BME280;6800;50.940;6.940;2023-03-14T20:58:32;100323.41;;;15.07;31.95
13456;BME280;6800;50.940;6.940;2023-03-14T21:02:34;100322.53;;;14.86;32.00
13456;BME280;6800;50.940;6.940;2023-03-14T21:06:36;100335.66;;;14.86;31.52
13456;BME280;6800;50.940;6.940;2023-03-14T21:10:37;100334.19;;;14.93;31.36
13456;BME280;6800;50.940;6.940;2023-03-14T21:14:39;100343.56;;;14.75;31.66
13456;BME280;6800;50.940;6.940;2023-03-14T21:18:40;100348.25;;;14.60;31.81
13456;BME280;6800;50.940;6.940;2023-03-14T21:22:42;100353.47;;;14.38;32.57
13456;BME280;6800;50.940;6.940;2023-03-14T21:26:43;100354.81;;;14.33;32.47
13456;BME280;6800;50.940;6.940;2023-03-14T21:30:46;100365.19;;;14.34;32.95
13456;BME280;6800;50.940;6.940;2023-03-14T21:34:48;100359.34;;;14.31;32.61
13456;BME280;6800;50.940;6.940;2023-03-14T21:38:49;100363.28;;;14.47;32.84
13456;BME280;6800;50.940;6.940;2023-03-14T21:42:51;100367.69;;;14.47;32.87
13456;BME280;6800;50.940;6.940;2023-03-14T21:46:55;100372.84;;;14.37;33.23
13456;BME280;6800;50.940;6.940;2023-03-14T21:50:57;100380.50;;;14.17;33.80
13456;BME280;6800;50.940;6.940;2023-03-14T21:54:58;100385.84;;;14.39;33.23
13456;BME280;6800;50.940;6.940;2023-03-14T21:58:59;100386.53;;;14.30;33.34
13456;BME280;6800;50.940;6.940;2023-03-14T22:03:00;100392.22;;;14.01;33.72
13456;BME280;6800;50.940;6.940;2023-03-14T22:07:15;100396.84;;;13.98;34.24
13456;BME280;6800;50.940;6.940;2023-03-14T22:11:21;100402.47;;;14.04;34.02